sensor_id;sensor_type;location;lat;lon;timestamp;P1;durP1;ratioP1;P2;durP2;ratioP2
16973;SDS011;8603;46.944;7.412;2022-10-29T01:47:59;9.00;;;5.80;;
16973;SDS011;8603;46.944;7.412;2022-10-29T01:50:31;10.87;;;5.87;;
16973;SDS011;8603;46.944;7.412;2022-10-29T01:52:59;9.83;;;5.70;;
16973;SDS011;8603;46.944;7.412;2022-10-29T01:55:28;9.67;;;5.70;;
16973;SDS011;8603;46.944;7.412;2022-10-29T01:57:56;8.30;;;5.40;;
16973;SDS011;8603;46.944;7.412;2022-10-29T02:00:21;7.83;;;4.73;;
16973;SDS011;8603;46.944;7.412;2022-10-29T02:05:46;9.13;;;5.10;;
16973;SDS011;8603;46.944;7.412;2022-10-29T02:08:19;9.20;;;5.10;;
16973;SDS011;8603;46.944;7.412;2022-10-29T02:14:04;8.17;;;4.97;;
16973;SDS011;8603;46.944;7.412;2022-10-29T02:16:32;10.17;;;5.30;;
16973;SDS011;8603;46.944;7.412;2022-10-29T02:18:58;10.33;;;5.27;;
16973;SDS011;8603;46.944;7.412;2022-10-29T02:21:24;8.40;;;5.03;;
16973;SDS011;8603;46.944;7.412;2022-10-29T02:23:50;8.33;;;4.80;;
16973;SDS011;8603;46.944;7.412;2022-10-29T02:26:16;12.20;;;5.20;;
16973;SDS011;8603;46.944;7.412;2022-10-29T02:28:42;6.63;;;4.63;;
16973;SDS011;8603;46.944;7.412;2022-10-29T02:31:07;9.97;;;5.50;;
16973;SDS011;8603;46.944;7.412;2022-10-29T02:33:33;10.70;;;4.90;;
16973;SDS011;8603;46.944;7.412;2022-10-29T02:35:58;10.97;;;4.70;;
16973;SDS011;8603;46.944;7.412;2022-10-29T02:38:24;7.80;;;4.70;;
16973;SDS011;8603;46.944;7.412;2022-10-29T02:40:50;7.67;;;4.80;;
16973;SDS011;8603;46.944;7.412;2022-10-29T02:43:15;5.80;;;4.33;;
16973;SDS011;8603;46.944;7.412;2022-10-29T02:45:41;6.53;;;4.83;;
16973;SDS011;8603;46.944;7.412;2022-10-29T02:48:07;9.90;;;4.80;;
16973;SDS011;8603;46.944;7.412;2022-10-29T02:50:32;8.43;;;4.97;;
16973;SDS011;8603;46.944;7.412;2022-10-29T02:52:58;9.83;;;5.67;;
16973;SDS011;8603;46.944;7.412;2022-10-29T02:55:24;8.27;;;4.93;;
16973;SDS011;8603;46.944;7.412;2022-10-29T02:57:49;15.03;;;5.17;;
16973;SDS011;8603;46.944;7.412;2022-10-29T03:00:15;9.27;;;5.03;;
16973;SDS011;8603;46.944;7.412;2022-10-29T03:02:41;12.37;;;5.10;;
16973;SDS011;8603;46.944;7.412;2022-10-29T03:05:06;9.70;;;5.23;;
16973;SDS011;8603;46.944;7.412;2022-10-29T03:07:36;10.00;;;5.20;;
16973;SDS011;8603;46.944;7.412;2022-10-29T03:10:05;11.97;;;5.07;;
16973;SDS011;8603;46.944;7.412;2022-10-29T03:12:32;11.13;;;5.70;;
16973;SDS011;8603;46.944;7.412;2022-10-29T03:14:58;13.20;;;5.40;;
16973;SDS011;8603;46.944;7.412;2022-10-29T03:17:23;7.90;;;4.90;;
16973;SDS011;8603;46.944;7.412;2022-10-29T03:19:49;7.40;;;4.67;;
16973;SDS011;8603;46.944;7.412;2022-10-29T03:22:15;6.10;;;4.47;;
16973;SDS011;8603;46.944;7.412;2022-10-29T03:24:40;11.97;;;5.03;;
16973;SDS011;8603;46.944;7.412;2022-10-29T03:27:06;11.60;;;5.17;;
16973;SDS011;8603;46.944;7.412;2022-10-29T03:29:31;9.87;;;5.13;;
16973;SDS011;8603;46.944;7.412;2022-10-29T03:31:57;7.67;;;4.67;;
16973;SDS011;8603;46.944;7.412;2022-10-29T03:34:22;12.50;;;5.30;;
16973;SDS011;8603;46.944;7.412;2022-10-29T03:36:48;6.90;;;4.63;;
16973;SDS011;8603;46.944;7.412;2022-10-29T03:39:14;12.53;;;6.10;;
16973;SDS011;8603;46.944;7.412;2022-10-29T03:41:39;7.47;;;4.57;;
16973;SDS011;8603;46.944;7.412;2022-10-29T03:44:05;10.67;;;5.10;;
16973;SDS011;8603;46.944;7.412;2022-10-29T03:46:31;6.43;;;5.00;;
16973;SDS011;8603;46.944;7.412;2022-10-29T03:48:56;11.90;;;5.13;;
16973;SDS011;8603;46.944;7.412;2022-10-29T03:51:22;6.10;;;5.20;;
16973;SDS011;8603;46.944;7.412;2022-10-29T03:53:47;11.30;;;5.60;;
16973;SDS011;8603;46.944;7.412;2022-10-29T03:56:13;11.17;;;5.20;;
16973;SDS011;8603;46.944;7.412;2022-10-29T03:58:38;7.47;;;4.50;;
16973;SDS011;8603;46.944;7.412;2022-10-29T04:01:05;9.67;;;4.90;;
16973;SDS011;8603;46.944;7.412;2022-10-29T04:03:32;10.93;;;5.03;;
16973;SDS011;8603;46.944;7.412;2022-10-29T04:06:00;8.73;;;5.30;;
16973;SDS011;8603;46.944;7.412;2022-10-29T04:08:26;8.67;;;5.27;;
16973;SDS011;8603;46.944;7.412;2022-10-29T04:10:53;8.13;;;5.07;;
16973;SDS011;8603;46.944;7.412;2022-10-29T04:13:18;9.47;;;5.17;;
16973;SDS011;8603;46.944;7.412;2022-10-29T04:15:44;11.83;;;5.73;;
16973;SDS011;8603;46.944;7.412;2022-10-29T04:18:10;10.90;;;5.60;;
16973;SDS011;8603;46.944;7.412;2022-10-29T04:20:37;9.43;;;5.27;;
16973;SDS011;8603;46.944;7.412;2022-10-29T04:23:04;8.27;;;4.90;;
16973;SDS011;8603;46.944;7.412;2022-10-29T04:25:29;10.63;;;5.20;;
16973;SDS011;8603;46.944;7.412;2022-10-29T04:27:55;8.17;;;5.30;;
16973;SDS011;8603;46.944;7.412;2022-10-29T04:30:21;7.67;;;4.73;;
16973;SDS011;8603;46.944;7.412;2022-10-29T04:32:48;7.93;;;5.20;;
16973;SDS011;8603;46.944;7.412;2022-10-29T04:35:13;8.73;;;5.00;;
16973;SDS011;8603;46.944;7.412;2022-10-29T04:37:39;11.03;;;5.47;;
16973;SDS011;8603;46.944;7.412;2022-10-29T04:40:05;11.87;;;5.40;;
16973;SDS011;8603;46.944;7.412;2022-10-29T04:42:35;8.67;;;5.23;;
16973;SDS011;8603;46.944;7.412;2022-10-29T04:45:01;7.93;;;4.60;;
16973;SDS011;8603;46.944;7.412;2022-10-29T04:47:27;8.67;;;4.90;;
16973;SDS011;8603;46.944;7.412;2022-10-29T04:49:53;6.27;;;4.57;;
16973;SDS011;8603;46.944;7.412;2022-10-29T04:52:19;9.37;;;4.70;;
16973;SDS011;8603;46.944;7.412;2022-10-29T04:54:44;5.77;;;4.13;;
16973;SDS011;8603;46.944;7.412;2022-10-29T04:57:10;11.03;;;4.97;;
16973;SDS011;8603;46.944;7.412;2022-10-29T04:59:35;6.07;;;4.57;;
16973;SDS011;8603;46.944;7.412;2022-10-29T05:02:01;10.93;;;5.00;;
16973;SDS011;8603;46.944;7.412;2022-10-29T05:04:26;8.00;;;5.23;;
16973;SDS011;8603;46.944;7.412;2022-10-29T05:06:53;6.23;;;4.23;;
16973;SDS011;8603;46.944;7.412;2022-10-29T05:09:19;10.83;;;5.10;;
16973;SDS011;8603;46.944;7.412;2022-10-29T05:11:44;10.07;;;4.90;;
16973;SDS011;8603;46.944;7.412;2022-10-29T05:14:10;7.87;;;4.70;;
16973;SDS011;8603;46.944;7.412;2022-10-29T05:16:35;6.97;;;4.40;;
16973;SDS011;8603;46.944;7.412;2022-10-29T05:19:01;7.93;;;4.40;;
16973;SDS011;8603;46.944;7.412;2022-10-29T05:21:27;8.23;;;4.53;;
16973;SDS011;8603;46.944;7.412;2022-10-29T05:23:53;6.50;;;4.10;;
16973;SDS011;8603;46.944;7.412;2022-10-29T05:26:19;6.10;;;4.23;;
16973;SDS011;8603;46.944;7.412;2022-10-29T05:28:47;5.70;;;3.73;;
16973;SDS011;8603;46.944;7.412;2022-10-29T05:31:13;6.13;;;3.80;;
16973;SDS011;8603;46.944;7.412;2022-10-29T05:33:39;7.30;;;3.83;;
16973;SDS011;8603;46.944;7.412;2022-10-29T05:36:05;6.83;;;3.67;;
16973;SDS011;8603;46.944;7.412;2022-10-29T05:38:30;7.97;;;4.40;;
16973;SDS011;8603;46.944;7.412;2022-10-29T05:40:57;7.00;;;4.67;;
16973;SDS011;8603;46.944;7.412;2022-10-29T05:43:23;6.10;;;4.30;;
16973;SDS011;8603;46.944;7.412;2022-10-29T05:45:49;11.70;;;4.90;;
16973;SDS011;8603;46.944;7.412;2022-10-29T05:48:14;8.67;;;4.80;;
16973;SDS011;8603;46.944;7.412;2022-10-29T05:50:40;10.40;;;5.60;;
16973;SDS011;8603;46.944;7.412;2022-10-29T05:53:06;7.97;;;5.07;;
16973;SDS011;8603;46.944;7.412;2022-10-29T05:55:35;11.93;;;5.33;;
16973;SDS011;8603;46.944;7.412;2022-10-29T05:58:02;9.73;;;4.70;;
16973;SDS011;8603;46.944;7.412;2022-10-29T06:00:30;10.27;;;4.87;;
16973;SDS011;8603;46.944;7.412;2022-10-29T06:02:57;9.27;;;4.77;;
16973;SDS011;8603;46.944;7.412;2022-10-29T06:05:23;7.77;;;4.47;;
16973;SDS011;8603;46.944;7.412;2022-10-29T06:07:58;9.23;;;5.20;;
16973;SDS011;8603;46.944;7.412;2022-10-29T06:10:25;9.27;;;5.10;;
16973;SDS011;8603;46.944;7.412;2022-10-29T06:12:52;6.60;;;4.67;;
16973;SDS011;8603;46.944;7.412;2022-10-29T06:15:18;8.40;;;4.83;;
16973;SDS011;8603;46.944;7.412;2022-10-29T06:17:44;9.77;;;5.03;;
16973;SDS011;8603;46.944;7.412;2022-10-29T06:20:11;7.43;;;4.63;;
16973;SDS011;8603;46.944;7.412;2022-10-29T06:22:38;8.97;;;5.00;;
16973;SDS011;8603;46.944;7.412;2022-10-29T06:25:03;9.90;;;5.50;;
16973;SDS011;8603;46.944;7.412;2022-10-29T06:27:29;8.57;;;4.83;;
16973;SDS011;8603;46.944;7.412;2022-10-29T06:29:55;9.67;;;5.50;;
16973;SDS011;8603;46.944;7.412;2022-10-29T06:32:21;9.33;;;5.13;;
16973;SDS011;8603;46.944;7.412;2022-10-29T06:34:46;8.87;;;5.10;;
16973;SDS011;8603;46.944;7.412;2022-10-29T06:37:12;8.43;;;5.40;;
16973;SDS011;8603;46.944;7.412;2022-10-29T06:39:38;11.07;;;5.87;;
16973;SDS011;8603;46.944;7.412;2022-10-29T06:42:04;10.23;;;5.70;;
16973;SDS011;8603;46.944;7.412;2022-10-29T06:44:29;10.23;;;6.10;;
16973;SDS011;8603;46.944;7.412;2022-10-29T06:46:56;10.90;;;6.00;;
16973;SDS011;8603;46.944;7.412;2022-10-29T06:49:22;12.50;;;5.80;;
16973;SDS011;8603;46.944;7.412;2022-10-29T06:51:48;11.90;;;5.93;;
16973;SDS011;8603;46.944;7.412;2022-10-29T06:54:13;9.53;;;5.63;;
16973;SDS011;8603;46.944;7.412;2022-10-29T06:56:39;10.80;;;6.33;;
16973;SDS011;8603;46.944;7.412;2022-10-29T06:59:05;10.77;;;5.80;;
16973;SDS011;8603;46.944;7.412;2022-10-29T07:01:30;7.97;;;6.00;;
16973;SDS011;8603;46.944;7.412;2022-10-29T07:04:00;9.70;;;5.67;;
16973;SDS011;8603;46.944;7.412;2022-10-29T07:06:26;14.67;;;5.90;;
16973;SDS011;8603;46.944;7.412;2022-10-29T07:08:52;10.40;;;6.10;;
16973;SDS011;8603;46.944;7.412;2022-10-29T07:11:18;8.93;;;5.43;;
16973;SDS011;8603;46.944;7.412;2022-10-29T07:13:44;8.40;;;5.07;;
16973;SDS011;8603;46.944;7.412;2022-10-29T07:16:12;7.23;;;4.73;;
16973;SDS011;8603;46.944;7.412;2022-10-29T07:18:40;8.83;;;5.60;;
16973;SDS011;8603;46.944;7.412;2022-10-29T07:21:06;10.13;;;5.73;;
16973;SDS011;8603;46.944;7.412;2022-10-29T07:23:31;10.27;;;5.53;;
16973;SDS011;8603;46.944;7.412;2022-10-29T07:25:57;12.57;;;5.10;;
16973;SDS011;8603;46.944;7.412;2022-10-29T07:28:23;15.27;;;6.07;;
16973;SDS011;8603;46.944;7.412;2022-10-29T07:30:49;8.20;;;5.23;;
16973;SDS011;8603;46.944;7.412;2022-10-29T07:33:16;6.43;;;4.67;;
16973;SDS011;8603;46.944;7.412;2022-10-29T07:35:42;9.83;;;4.57;;
16973;SDS011;8603;46.944;7.412;2022-10-29T07:38:09;11.50;;;4.80;;
16973;SDS011;8603;46.944;7.412;2022-10-29T07:40:36;6.40;;;3.43;;
16973;SDS011;8603;46.944;7.412;2022-10-29T07:43:03;8.95;;;3.63;;
16973;SDS011;8603;46.944;7.412;2022-10-29T07:45:28;8.90;;;3.95;;
16973;SDS011;8603;46.944;7.412;2022-10-29T07:47:58;10.45;;;3.67;;
16973;SDS011;8603;46.944;7.412;2022-10-29T07:50:25;6.47;;;4.05;;
16973;SDS011;8603;46.944;7.412;2022-10-29T07:52:51;7.25;;;3.42;;
16973;SDS011;8603;46.944;7.412;2022-10-29T07:55:17;7.18;;;3.40;;
16973;SDS011;8603;46.944;7.412;2022-10-29T07:57:42;7.72;;;3.25;;
16973;SDS011;8603;46.944;7.412;2022-10-29T08:00:08;6.65;;;3.38;;
16973;SDS011;8603;46.944;7.412;2022-10-29T08:02:36;7.32;;;3.47;;
16973;SDS011;8603;46.944;7.412;2022-10-29T08:05:02;10.25;;;3.22;;
16973;SDS011;8603;46.944;7.412;2022-10-29T08:07:28;8.60;;;3.72;;
16973;SDS011;8603;46.944;7.412;2022-10-29T08:09:54;7.82;;;3.80;;
16973;SDS011;8603;46.944;7.412;2022-10-29T08:12:19;9.18;;;3.90;;
16973;SDS011;8603;46.944;7.412;2022-10-29T08:14:45;8.40;;;3.90;;
16973;SDS011;8603;46.944;7.412;2022-10-29T08:17:10;9.15;;;3.83;;
16973;SDS011;8603;46.944;7.412;2022-10-29T08:19:36;9.52;;;3.63;;
16973;SDS011;8603;46.944;7.412;2022-10-29T08:22:02;8.73;;;3.53;;
16973;SDS011;8603;46.944;7.412;2022-10-29T08:24:39;8.98;;;4.13;;
16973;SDS011;8603;46.944;7.412;2022-10-29T08:34:35;10.50;;;4.22;;
16973;SDS011;8603;46.944;7.412;2022-10-29T08:37:20;9.57;;;3.63;;
16973;SDS011;8603;46.944;7.412;2022-10-29T08:39:46;5.95;;;3.38;;
16973;SDS011;8603;46.944;7.412;2022-10-29T08:54:10;10.48;;;3.95;;
16973;SDS011;8603;46.944;7.412;2022-10-29T08:56:39;8.63;;;3.80;;
16973;SDS011;8603;46.944;7.412;2022-10-29T08:59:22;8.77;;;4.20;;
16973;SDS011;8603;46.944;7.412;2022-10-29T09:01:57;7.97;;;3.63;;
16973;SDS011;8603;46.944;7.412;2022-10-29T09:04:24;8.43;;;3.70;;
16973;SDS011;8603;46.944;7.412;2022-10-29T09:10:07;8.70;;;3.67;;
16973;SDS011;8603;46.944;7.412;2022-10-29T09:21:27;9.32;;;3.55;;
16973;SDS011;8603;46.944;7.412;2022-10-29T09:27:04;9.82;;;3.55;;
16973;SDS011;8603;46.944;7.412;2022-10-29T09:32:28;9.55;;;3.55;;
16973;SDS011;8603;46.944;7.412;2022-10-29T09:35:09;9.80;;;3.70;;
16973;SDS011;8603;46.944;7.412;2022-10-29T09:40:22;8.82;;;2.95;;
16973;SDS011;8603;46.944;7.412;2022-10-29T09:42:57;11.70;;;3.08;;
16973;SDS011;8603;46.944;7.412;2022-10-29T09:45:32;11.45;;;3.53;;
16973;SDS011;8603;46.944;7.412;2022-10-29T09:48:21;7.93;;;3.13;;
16973;SDS011;8603;46.944;7.412;2022-10-29T09:51:12;10.27;;;3.75;;
16973;SDS011;8603;46.944;7.412;2022-10-29T09:54:01;8.40;;;3.60;;
16973;SDS011;8603;46.944;7.412;2022-10-29T09:56:28;8.88;;;3.20;;
16973;SDS011;8603;46.944;7.412;2022-10-29T09:58:56;9.35;;;3.28;;
16973;SDS011;8603;46.944;7.412;2022-10-29T10:01:31;10.50;;;3.15;;
16973;SDS011;8603;46.944;7.412;2022-10-29T10:03:58;7.72;;;3.15;;
16973;SDS011;8603;46.944;7.412;2022-10-29T10:06:30;8.18;;;3.05;;
16973;SDS011;8603;46.944;7.412;2022-10-29T10:09:55;6.75;;;3.10;;
16973;SDS011;8603;46.944;7.412;2022-10-29T10:12:23;8.32;;;3.00;;
16973;SDS011;8603;46.944;7.412;2022-10-29T10:15:17;7.60;;;3.42;;
16973;SDS011;8603;46.944;7.412;2022-10-29T10:18:00;9.98;;;3.33;;
16973;SDS011;8603;46.944;7.412;2022-10-29T10:20:47;10.57;;;3.47;;
16973;SDS011;8603;46.944;7.412;2022-10-29T10:23:25;7.88;;;3.17;;
16973;SDS011;8603;46.944;7.412;2022-10-29T10:31:46;11.52;;;3.33;;
16973;SDS011;8603;46.944;7.412;2022-10-29T10:37:04;9.77;;;3.38;;
16973;SDS011;8603;46.944;7.412;2022-10-29T10:39:44;7.93;;;3.35;;
16973;SDS011;8603;46.944;7.412;2022-10-29T10:42:20;7.50;;;3.08;;
16973;SDS011;8603;46.944;7.412;2022-10-29T10:44:52;8.43;;;3.25;;
16973;SDS011;8603;46.944;7.412;2022-10-29T10:47:28;8.65;;;3.00;;
16973;SDS011;8603;46.944;7.412;2022-10-29T10:50:11;8.18;;;3.05;;
16973;SDS011;8603;46.944;7.412;2022-10-29T10:52:58;9.77;;;3.08;;
16973;SDS011;8603;46.944;7.412;2022-10-29T10:55:30;8.90;;;3.50;;
16973;SDS011;8603;46.944;7.412;2022-10-29T10:58:03;14.15;;;3.20;;
16973;SDS011;8603;46.944;7.412;2022-10-29T11:00:40;7.72;;;2.78;;
16973;SDS011;8603;46.944;7.412;2022-10-29T11:03:14;15.80;;;3.28;;
16973;SDS011;8603;46.944;7.412;2022-10-29T11:05:53;8.77;;;3.55;;
16973;SDS011;8603;46.944;7.412;2022-10-29T11:08:32;9.23;;;2.90;;
16973;SDS011;8603;46.944;7.412;2022-10-29T11:11:14;8.77;;;3.42;;
16973;SDS011;8603;46.944;7.412;2022-10-29T11:13:46;9.60;;;3.25;;
16973;SDS011;8603;46.944;7.412;2022-10-29T11:18:54;7.35;;;3.22;;
16973;SDS011;8603;46.944;7.412;2022-10-29T11:24:32;7.32;;;2.88;;
16973;SDS011;8603;46.944;7.412;2022-10-29T11:30:09;9.25;;;3.15;;
16973;SDS011;8603;46.944;7.412;2022-10-29T11:35:43;11.32;;;3.95;;
16973;SDS011;8603;46.944;7.412;2022-10-29T11:41:03;11.98;;;3.40;;
16973;SDS011;8603;46.944;7.412;2022-10-29T11:43:48;8.68;;;3.13;;
16973;SDS011;8603;46.944;7.412;2022-10-29T11:46:27;8.50;;;3.60;;
16973;SDS011;8603;46.944;7.412;2022-10-29T11:49:18;6.10;;;2.60;;
16973;SDS011;8603;46.944;7.412;2022-10-29T11:52:25;10.73;;;3.53;;
16973;SDS011;8603;46.944;7.412;2022-10-29T11:55:09;9.90;;;3.42;;
16973;SDS011;8603;46.944;7.412;2022-10-29T11:58:18;9.55;;;3.50;;
16973;SDS011;8603;46.944;7.412;2022-10-29T12:00:53;8.05;;;3.22;;
16973;SDS011;8603;46.944;7.412;2022-10-29T12:08:47;6.15;;;3.03;;
16973;SDS011;8603;46.944;7.412;2022-10-29T12:14:27;8.07;;;3.20;;
16973;SDS011;8603;46.944;7.412;2022-10-29T12:17:29;14.15;;;3.58;;
16973;SDS011;8603;46.944;7.412;2022-10-29T12:22:45;9.00;;;3.50;;
16973;SDS011;8603;46.944;7.412;2022-10-29T12:25:20;9.10;;;3.28;;
16973;SDS011;8603;46.944;7.412;2022-10-29T12:28:21;7.63;;;2.85;;
16973;SDS011;8603;46.944;7.412;2022-10-29T12:36:14;9.90;;;3.92;;
16973;SDS011;8603;46.944;7.412;2022-10-29T12:39:03;11.38;;;3.28;;
16973;SDS011;8603;46.944;7.412;2022-10-29T12:41:35;8.65;;;3.30;;
16973;SDS011;8603;46.944;7.412;2022-10-29T12:44:16;7.07;;;3.15;;
16973;SDS011;8603;46.944;7.412;2022-10-29T12:52:08;8.93;;;3.28;;
16973;SDS011;8603;46.944;7.412;2022-10-29T12:54:49;13.77;;;3.67;;
16973;SDS011;8603;46.944;7.412;2022-10-29T13:07:22;6.93;;;3.30;;
16973;SDS011;8603;46.944;7.412;2022-10-29T13:15:59;7.25;;;3.30;;
16973;SDS011;8603;46.944;7.412;2022-10-29T13:20:58;6.10;;;3.17;;
16973;SDS011;8603;46.944;7.412;2022-10-29T13:30:45;5.78;;;2.55;;
16973;SDS011;8603;46.944;7.412;2022-10-29T13:35:57;11.50;;;3.90;;
16973;SDS011;8603;46.944;7.412;2022-10-29T13:41:27;8.50;;;3.60;;
16973;SDS011;8603;46.944;7.412;2022-10-29T13:46:43;7.50;;;3.20;;
16973;SDS011;8603;46.944;7.412;2022-10-29T13:49:11;11.95;;;3.55;;
16973;SDS011;8603;46.944;7.412;2022-10-29T13:51:50;7.82;;;3.17;;
16973;SDS011;8603;46.944;7.412;2022-10-29T13:54:23;17.48;;;8.40;;
16973;SDS011;8603;46.944;7.412;2022-10-29T13:56:53;11.32;;;5.13;;
16973;SDS011;8603;46.944;7.412;2022-10-29T13:59:39;8.05;;;3.80;;
16973;SDS011;8603;46.944;7.412;2022-10-29T14:02:22;6.38;;;3.60;;
16973;SDS011;8603;46.944;7.412;2022-10-29T14:04:58;8.05;;;3.33;;
16973;SDS011;8603;46.944;7.412;2022-10-29T14:10:31;6.20;;;3.00;;
16973;SDS011;8603;46.944;7.412;2022-10-29T14:16:01;5.75;;;2.95;;
16973;SDS011;8603;46.944;7.412;2022-10-29T14:18:52;7.55;;;2.90;;
16973;SDS011;8603;46.944;7.412;2022-10-29T14:23:57;8.90;;;3.17;;
16973;SDS011;8603;46.944;7.412;2022-10-29T14:26:40;6.18;;;3.00;;
16973;SDS011;8603;46.944;7.412;2022-10-29T14:32:36;13.02;;;3.65;;
16973;SDS011;8603;46.944;7.412;2022-10-29T14:35:03;8.98;;;3.63;;
16973;SDS011;8603;46.944;7.412;2022-10-29T14:37:35;6.97;;;3.08;;
16973;SDS011;8603;46.944;7.412;2022-10-29T14:40:24;9.65;;;3.75;;
16973;SDS011;8603;46.944;7.412;2022-10-29T14:42:53;8.02;;;3.40;;
16973;SDS011;8603;46.944;7.412;2022-10-29T14:45:24;7.38;;;3.42;;
16973;SDS011;8603;46.944;7.412;2022-10-29T14:47:56;6.13;;;3.10;;
16973;SDS011;8603;46.944;7.412;2022-10-29T14:50:27;7.22;;;3.42;;
16973;SDS011;8603;46.944;7.412;2022-10-29T14:53:02;4.53;;;2.88;;
16973;SDS011;8603;46.944;7.412;2022-10-29T14:55:30;8.35;;;3.22;;
16973;SDS011;8603;46.944;7.412;2022-10-29T15:00:29;8.35;;;3.50;;
16973;SDS011;8603;46.944;7.412;2022-10-29T15:02:57;7.63;;;3.08;;
16973;SDS011;8603;46.944;7.412;2022-10-29T15:10:49;10.10;;;3.60;;
16973;SDS011;8603;46.944;7.412;2022-10-29T15:13:23;10.40;;;3.85;;
16973;SDS011;8603;46.944;7.412;2022-10-29T15:18:20;14.45;;;4.50;;
16973;SDS011;8603;46.944;7.412;2022-10-29T15:20:51;9.48;;;4.60;;
16973;SDS011;8603;46.944;7.412;2022-10-29T15:23:25;11.25;;;5.05;;
16973;SDS011;8603;46.944;7.412;2022-10-29T15:26:03;9.77;;;4.72;;
16973;SDS011;8603;46.944;7.412;2022-10-29T15:28:39;13.23;;;5.13;;
16973;SDS011;8603;46.944;7.412;2022-10-29T15:31:10;9.45;;;4.97;;
16973;SDS011;8603;46.944;7.412;2022-10-29T15:33:44;9.35;;;4.32;;
16973;SDS011;8603;46.944;7.412;2022-10-29T15:48:48;7.63;;;3.88;;
16973;SDS011;8603;46.944;7.412;2022-10-29T15:51:16;10.13;;;4.13;;
16973;SDS011;8603;46.944;7.412;2022-10-29T15:53:42;8.82;;;3.95;;
16973;SDS011;8603;46.944;7.412;2022-10-29T15:56:09;9.48;;;4.47;;
16973;SDS011;8603;46.944;7.412;2022-10-29T15:58:44;7.60;;;4.07;;
16973;SDS011;8603;46.944;7.412;2022-10-29T16:01:11;9.35;;;4.35;;
16973;SDS011;8603;46.944;7.412;2022-10-29T16:03:39;8.90;;;4.30;;
16973;SDS011;8603;46.944;7.412;2022-10-29T16:06:05;8.48;;;3.50;;
16973;SDS011;8603;46.944;7.412;2022-10-29T16:08:51;10.00;;;4.18;;
16973;SDS011;8603;46.944;7.412;2022-10-29T16:11:22;8.60;;;4.40;;
16973;SDS011;8603;46.944;7.412;2022-10-29T16:13:51;12.82;;;4.70;;
16973;SDS011;8603;46.944;7.412;2022-10-29T16:16:21;7.95;;;4.07;;
16973;SDS011;8603;46.944;7.412;2022-10-29T16:18:48;10.15;;;4.50;;
16973;SDS011;8603;46.944;7.412;2022-10-29T16:21:18;7.25;;;4.30;;
16973;SDS011;8603;46.944;7.412;2022-10-29T16:23:49;12.10;;;6.05;;
16973;SDS011;8603;46.944;7.412;2022-10-29T16:26:16;9.38;;;5.25;;
16973;SDS011;8603;46.944;7.412;2022-10-29T16:28:44;12.88;;;5.00;;
16973;SDS011;8603;46.944;7.412;2022-10-29T16:31:21;11.55;;;4.40;;
16973;SDS011;8603;46.944;7.412;2022-10-29T16:33:49;8.10;;;4.38;;
16973;SDS011;8603;46.944;7.412;2022-10-29T16:36:16;8.55;;;4.28;;
16973;SDS011;8603;46.944;7.412;2022-10-29T16:38:45;9.77;;;4.88;;
16973;SDS011;8603;46.944;7.412;2022-10-29T16:41:15;13.93;;;5.13;;
16973;SDS011;8603;46.944;7.412;2022-10-29T16:43:43;10.52;;;4.45;;
16973;SDS011;8603;46.944;7.412;2022-10-29T16:46:09;11.13;;;5.05;;
16973;SDS011;8603;46.944;7.412;2022-10-29T16:48:39;9.82;;;4.57;;
16973;SDS011;8603;46.944;7.412;2022-10-29T16:51:05;10.55;;;4.47;;
16973;SDS011;8603;46.944;7.412;2022-10-29T16:53:34;7.00;;;4.65;;
16973;SDS011;8603;46.944;7.412;2022-10-29T16:56:00;10.25;;;4.63;;
16973;SDS011;8603;46.944;7.412;2022-10-29T16:58:29;8.27;;;4.35;;
16973;SDS011;8603;46.944;7.412;2022-10-29T17:01:01;8.90;;;4.25;;
16973;SDS011;8603;46.944;7.412;2022-10-29T17:03:32;10.30;;;5.05;;
16973;SDS011;8603;46.944;7.412;2022-10-29T17:06:05;6.25;;;4.30;;
16973;SDS011;8603;46.944;7.412;2022-10-29T17:08:33;10.98;;;4.88;;
16973;SDS011;8603;46.944;7.412;2022-10-29T17:10:59;8.00;;;4.70;;
16973;SDS011;8603;46.944;7.412;2022-10-29T17:13:26;7.87;;;4.47;;
16973;SDS011;8603;46.944;7.412;2022-10-29T17:15:52;12.17;;;4.80;;
16973;SDS011;8603;46.944;7.412;2022-10-29T17:18:18;7.97;;;4.70;;
16973;SDS011;8603;46.944;7.412;2022-10-29T17:20:52;9.52;;;4.75;;
16973;SDS011;8603;46.944;7.412;2022-10-29T17:23:22;8.18;;;4.65;;
16973;SDS011;8603;46.944;7.412;2022-10-29T17:25:54;11.63;;;5.33;;
16973;SDS011;8603;46.944;7.412;2022-10-29T17:28:25;11.70;;;5.93;;
16973;SDS011;8603;46.944;7.412;2022-10-29T17:30:51;11.03;;;6.03;;
16973;SDS011;8603;46.944;7.412;2022-10-29T17:33:17;10.93;;;4.88;;
16973;SDS011;8603;46.944;7.412;2022-10-29T17:35:43;14.05;;;5.50;;
16973;SDS011;8603;46.944;7.412;2022-10-29T17:38:09;10.60;;;5.60;;
16973;SDS011;8603;46.944;7.412;2022-10-29T17:40:35;10.77;;;5.80;;
16973;SDS011;8603;46.944;7.412;2022-10-29T17:43:00;9.90;;;6.20;;
16973;SDS011;8603;46.944;7.412;2022-10-29T17:45:29;12.23;;;6.40;;
16973;SDS011;8603;46.944;7.412;2022-10-29T17:47:55;13.00;;;6.43;;
16973;SDS011;8603;46.944;7.412;2022-10-29T17:50:22;10.33;;;5.77;;
16973;SDS011;8603;46.944;7.412;2022-10-29T17:52:50;11.93;;;5.77;;
16973;SDS011;8603;46.944;7.412;2022-10-29T17:55:17;9.13;;;5.83;;
16973;SDS011;8603;46.944;7.412;2022-10-29T17:57:43;9.47;;;5.93;;
16973;SDS011;8603;46.944;7.412;2022-10-29T18:00:08;6.87;;;5.67;;
16973;SDS011;8603;46.944;7.412;2022-10-29T18:02:34;10.30;;;6.17;;
16973;SDS011;8603;46.944;7.412;2022-10-29T18:05:00;10.27;;;5.97;;
16973;SDS011;8603;46.944;7.412;2022-10-29T18:07:25;11.13;;;5.93;;
16973;SDS011;8603;46.944;7.412;2022-10-29T18:09:51;10.37;;;6.93;;
16973;SDS011;8603;46.944;7.412;2022-10-29T18:12:16;12.33;;;7.10;;
16973;SDS011;8603;46.944;7.412;2022-10-29T18:14:42;11.53;;;7.77;;
16973;SDS011;8603;46.944;7.412;2022-10-29T18:17:08;9.93;;;6.97;;
16973;SDS011;8603;46.944;7.412;2022-10-29T18:19:33;14.93;;;7.10;;
16973;SDS011;8603;46.944;7.412;2022-10-29T18:21:59;15.30;;;6.77;;
16973;SDS011;8603;46.944;7.412;2022-10-29T18:24:24;17.03;;;7.00;;
16973;SDS011;8603;46.944;7.412;2022-10-29T18:26:50;12.87;;;7.47;;
16973;SDS011;8603;46.944;7.412;2022-10-29T18:29:16;11.17;;;6.77;;
16973;SDS011;8603;46.944;7.412;2022-10-29T18:31:41;12.37;;;7.43;;
16973;SDS011;8603;46.944;7.412;2022-10-29T18:34:10;12.43;;;7.17;;
16973;SDS011;8603;46.944;7.412;2022-10-29T18:36:36;13.93;;;7.33;;
16973;SDS011;8603;46.944;7.412;2022-10-29T18:39:03;16.33;;;7.57;;
16973;SDS011;8603;46.944;7.412;2022-10-29T18:41:30;12.77;;;7.07;;
16973;SDS011;8603;46.944;7.412;2022-10-29T18:43:56;12.30;;;6.60;;
16973;SDS011;8603;46.944;7.412;2022-10-29T18:46:22;10.20;;;6.07;;
16973;SDS011;8603;46.944;7.412;2022-10-29T18:48:48;10.53;;;6.93;;
16973;SDS011;8603;46.944;7.412;2022-10-29T18:53:44;13.07;;;7.67;;
16973;SDS011;8603;46.944;7.412;2022-10-29T18:56:14;11.33;;;7.00;;
16973;SDS011;8603;46.944;7.412;2022-10-29T18:58:42;9.30;;;6.70;;
16973;SDS011;8603;46.944;7.412;2022-10-29T19:01:12;14.10;;;7.00;;
16973;SDS011;8603;46.944;7.412;2022-10-29T19:03:41;10.73;;;6.33;;
16973;SDS011;8603;46.944;7.412;2022-10-29T19:06:08;9.73;;;6.67;;
16973;SDS011;8603;46.944;7.412;2022-10-29T19:08:35;11.37;;;6.10;;
16973;SDS011;8603;46.944;7.412;2022-10-29T19:11:02;12.97;;;6.73;;
16973;SDS011;8603;46.944;7.412;2022-10-29T19:13:29;11.53;;;7.50;;
16973;SDS011;8603;46.944;7.412;2022-10-29T19:16:02;12.43;;;7.70;;
16973;SDS011;8603;46.944;7.412;2022-10-29T19:18:36;15.57;;;7.63;;
16973;SDS011;8603;46.944;7.412;2022-10-29T19:21:03;15.03;;;7.17;;
16973;SDS011;8603;46.944;7.412;2022-10-29T19:23:30;12.23;;;7.60;;
16973;SDS011;8603;46.944;7.412;2022-10-29T19:25:56;14.90;;;8.73;;
16973;SDS011;8603;46.944;7.412;2022-10-29T19:28:22;16.80;;;9.13;;
16973;SDS011;8603;46.944;7.412;2022-10-29T19:30:47;15.40;;;9.17;;
16973;SDS011;8603;46.944;7.412;2022-10-29T19:33:13;12.63;;;7.77;;
16973;SDS011;8603;46.944;7.412;2022-10-29T19:35:38;12.83;;;7.53;;
16973;SDS011;8603;46.944;7.412;2022-10-29T19:38:04;12.60;;;8.20;;
16973;SDS011;8603;46.944;7.412;2022-10-29T19:40:29;15.33;;;8.30;;